Time;durP1;ratioP1;P1;durP2;ratioP2;P2;SDS_P1;SDS_P2;PMS_P1;PMS_P2;Temp;Humidity;BMP_temperature;BMP_pressure;BME280_temperature;BME280_humidity;BME280_pressure;Samples;Min_cycle;Max_cycle;Signal;HPM_P1;HPM_P2
2022/12/31 00:00:35;;;;;;;12.40;10.70;;;;;;;22.21;42.61;95924.00;4987600;28;20069;-60
2022/12/31 00:03:01;;;;;;;12.60;10.10;;;;;;;20.72;42.21;95685.63;5008196;28;20050;-60
2022/12/31 00:05:30;;;;;;;14.70;11.10;;;;;;;22.24;42.55;95912.94;4989057;28;20037;-60
2022/12/31 00:07:55;;;;;;;12.43;10.20;;;;;;;21.63;42.49;95823.03;4988998;28;20046;-62
2022/12/31 00:10:20;;;;;;;13.35;11.02;;;;;;;22.17;42.76;95921.47;4989022;28;20093;-61
2022/12/31 00:12:46;;;;;;;13.90;10.75;;;;;;;22.17;42.51;95913.31;4989586;28;20121;-61
2022/12/31 00:15:11;;;;;;;13.48;10.27;;;;;;;21.60;42.61;95841.03;4988861;28;20497;-60
2022/12/31 00:17:37;;;;;;;12.40;10.23;;;;;;;21.98;42.82;95893.09;4978227;28;20027;-60
2022/12/31 00:20:02;;;;;;;12.90;10.52;;;;;;;21.92;42.90;95877.94;5002818;28;20138;-61
2022/12/31 00:22:28;;;;;;;13.98;10.60;;;;;;;22.05;42.96;95898.13;4986681;28;20033;-61
2022/12/31 00:24:53;;;;;;;13.63;10.48;;;;;;;21.57;42.74;95831.09;4987570;28;20527;-60
2022/12/31 00:27:21;;;;;;;13.52;11.00;;;;;;;22.13;42.69;95912.78;4985526;28;20046;-60
2022/12/31 00:29:46;;;;;;;13.55;11.00;;;;;;;22.01;42.72;95913.16;4986378;28;20561;-62
2022/12/31 00:32:12;;;;;;;13.77;10.80;;;;;;;22.02;42.82;95918.09;4987669;28;20084;-61
2022/12/31 00:34:37;;;;;;;13.82;10.68;;;;;;;22.08;42.71;95923.63;4987305;28;20050;-61
2022/12/31 00:37:02;;;;;;;14.30;10.90;;;;;;;21.52;42.81;95866.34;4985273;28;20058;-61
2022/12/31 00:39:28;;;;;;;13.38;10.95;;;;;;;22.04;43.00;95934.69;4988627;28;20062;-60
2022/12/31 00:41:53;;;;;;;15.05;11.00;;;;;;;20.43;42.70;95696.56;4987380;28;20100;-63
2022/12/31 00:44:19;;;;;;;13.27;10.57;;;;;;;21.28;42.88;95825.03;4970112;28;20482;-61
2022/12/31 00:46:44;;;;;;;13.52;10.73;;;;;;;21.85;42.73;95926.56;4986312;28;20117;-62
2022/12/31 00:49:10;;;;;;;13.63;10.75;;;;;;;21.96;43.12;95938.31;4985549;28;20113;-61
2022/12/31 00:51:35;;;;;;;12.73;10.20;;;;;;;21.98;43.09;95958.34;4987292;28;20134;-61
2022/12/31 00:54:01;;;;;;;13.45;11.00;;;;;;;21.76;42.91;95926.69;4984943;28;20112;-61
2022/12/31 00:56:27;;;;;;;13.63;11.02;;;;;;;21.95;43.22;95937.56;4985408;28;20038;-60
2022/12/31 00:58:53;;;;;;;13.95;11.05;;;;;;;22.08;43.18;95951.56;4985575;28;20519;-61
2022/12/31 01:01:29;;;;;;;14.70;11.60;;;;;;;22.07;42.95;95950.06;4987118;28;20041;-59
2022/12/31 01:03:58;;;;;;;12.95;10.50;;;;;;;22.07;43.20;95952.78;4986736;28;20055;-62
2022/12/31 01:06:23;;;;;;;13.27;10.45;;;;;;;21.89;43.12;95937.97;4983763;28;20150;-60
2022/12/31 01:08:49;;;;;;;13.55;10.88;;;;;;;21.43;42.99;95871.91;4988264;28;20093;-61
2022/12/31 01:11:18;;;;;;;13.63;10.85;;;;;;;21.92;43.31;95947.91;4986361;28;20618;-60
2022/12/31 01:13:49;;;;;;;13.20;10.80;;;;;;;22.01;43.35;95967.53;5017414;28;20043;-60
2022/12/31 01:16:15;;;;;;;12.20;10.48;;;;;;;22.03;43.16;95971.28;4986858;28;20049;-60
2022/12/31 01:18:40;;;;;;;13.32;10.50;;;;;;;22.07;43.14;95971.81;4998056;28;20042;-60
2022/12/31 01:21:07;;;;;;;12.57;10.63;;;;;;;21.40;42.97;95872.84;4985238;28;20046;-59
2022/12/31 01:23:33;;;;;;;13.57;11.15;;;;;;;22.05;43.19;95974.28;4956867;28;20026;-60
2022/12/31 01:26:00;;;;;;;14.60;11.10;;;;;;;21.98;43.25;95969.22;4986468;28;20613;-61
2022/12/31 01:28:25;;;;;;;12.90;10.40;;;;;;;21.97;43.17;95978.63;4984292;28;20044;-61
2022/12/31 01:30:51;;;;;;;14.13;11.38;;;;;;;21.90;43.06;95977.53;5017941;28;20042;-61
2022/12/31 01:33:16;;;;;;;13.63;11.02;;;;;;;21.95;43.34;95975.63;4985916;28;20053;-62
2022/12/31 01:35:42;;;;;;;12.75;10.27;;;;;;;22.00;43.22;95976.91;4982372;28;20075;-60
2022/12/31 01:38:07;;;;;;;13.20;11.07;;;;;;;22.03;43.17;95987.59;4983364;28;20430;-61
2022/12/31 01:40:36;;;;;;;12.85;10.45;;;;;;;21.46;43.05;95909.78;4983818;28;20043;-60
2022/12/31 01:43:02;;;;;;;14.20;11.13;;;;;;;22.00;43.07;95977.69;4985927;28;20120;-60
2022/12/31 01:45:27;;;;;;;13.55;10.65;;;;;;;21.87;43.21;95959.44;4989320;28;20498;-60
2022/12/31 01:47:56;;;;;;;13.68;10.75;;;;;;;21.22;43.20;95878.53;4987390;28;20511;-63
2022/12/31 01:50:27;;;;;;;13.27;10.73;;;;;;;21.93;43.02;95972.66;4969158;28;20105;-61
2022/12/31 01:52:55;;;;;;;13.90;10.75;;;;;;;21.89;43.64;95978.78;4984805;28;20057;-61
2022/12/31 01:55:45;;;;;;;14.07;11.27;;;;;;;21.92;43.27;95985.97;5016998;28;20042;-60
2022/12/31 01:58:17;;;;;;;14.55;11.23;;;;;;;21.94;43.29;95979.59;4986691;28;20050;-61
2022/12/31 02:00:42;;;;;;;13.05;11.00;;;;;;;21.95;43.38;96008.25;4983643;28;20056;-61
2022/12/31 02:03:08;;;;;;;13.45;10.73;;;;;;;21.71;43.19;95949.88;4984427;28;20058;-61
2022/12/31 02:05:52;;;;;;;13.48;10.95;;;;;;;21.91;43.20;95996.09;4969144;28;20030;-60
2022/12/31 02:08:17;;;;;;;13.73;11.10;;;;;;;21.82;43.34;95971.00;4968969;28;20066;-60
2022/12/31 02:10:42;;;;;;;13.70;11.27;;;;;;;21.23;43.25;95899.06;4969744;28;20387;-61
2022/12/31 02:13:08;;;;;;;15.15;11.32;;;;;;;21.81;43.47;95980.38;4972763;28;20042;-61
2022/12/31 02:16:11;;;;;;;13.68;10.93;;;;;;;21.86;43.42;95990.59;4969950;28;20112;-60
2022/12/31 02:18:46;;;;;;;14.32;11.23;;;;;;;21.88;43.49;95990.88;4966905;28;20945;-60
2022/12/31 02:21:40;;;;;;;13.25;11.38;;;;;;;21.89;43.40;96031.19;4968866;28;20141;-61
2022/12/31 02:24:17;;;;;;;13.90;10.68;;;;;;;20.61;43.34;95799.41;4970523;28;20045;-60
2022/12/31 02:27:00;;;;;;;13.55;10.88;;;;;;;21.16;43.31;95888.59;4983075;28;20045;-60
2022/12/31 02:29:48;;;;;;;13.45;11.77;;;;;;;21.86;43.58;95998.75;5015002;28;20026;-60
2022/12/31 02:32:44;;;;;;;14.85;11.85;;;;;;;21.84;43.55;95995.75;4984717;28;20046;-61
2022/12/31 02:35:18;;;;;;;14.70;11.30;;;;;;;21.75;43.37;95982.28;4983920;28;20038;-61
2022/12/31 02:37:43;;;;;;;13.88;10.90;;;;;;;21.16;43.02;95894.00;4967029;28;20493;-60
2022/12/31 02:40:10;;;;;;;13.07;11.05;;;;;;;21.46;43.56;95949.78;4983482;28;20038;-61
2022/12/31 02:42:36;;;;;;;13.50;10.95;;;;;;;21.79;43.43;95999.16;5016146;28;20046;-61
2022/12/31 02:45:01;;;;;;;12.88;10.85;;;;;;;21.47;43.47;95962.16;4982941;28;20081;-60
2022/12/31 02:48:16;;;;;;;14.93;11.95;;;;;;;21.82;43.59;96011.78;4983796;28;20109;-61
2022/12/31 02:50:57;;;;;;;13.85;11.02;;;;;;;21.78;43.49;96011.22;4966577;28;20042;-61
2022/12/31 02:53:53;;;;;;;15.05;11.50;;;;;;;21.80;43.51;96016.97;5016784;28;20053;-61
2022/12/31 02:56:30;;;;;;;14.30;11.52;;;;;;;21.68;43.27;95983.44;4980270;28;20084;-62
2022/12/31 03:04:35;;;;;;;15.18;11.30;;;;;;;21.81;43.66;96007.56;4984854;28;20104;-61
2022/12/31 03:07:05;;;;;;;13.50;11.80;;;;;;;21.75;43.46;96004.03;4988072;28;20049;-61
2022/12/31 03:09:30;;;;;;;;;;;;;;;21.77;43.69;96001.59;5021020;28;20043;-61
2022/12/31 03:14:40;;;;;;;14.77;11.77;;;;;;;21.64;43.50;95976.72;4984871;28;20070;-61
2022/12/31 03:17:05;;;;;;;13.45;10.60;;;;;;;21.69;43.67;95976.06;4983777;28;20038;-61
2022/12/31 03:22:27;;;;;;;13.45;11.60;;;;;;;21.73;43.51;95984.72;4984504;28;20053;-58
2022/12/31 03:27:44;;;;;;;13.88;11.75;;;;;;;21.76;43.31;95978.34;4984978;28;20387;-61
2022/12/31 03:30:11;;;;;;;13.95;11.43;;;;;;;21.82;43.30;96014.50;4967225;28;20042;-61
2022/12/31 03:32:36;;;;;;;13.13;10.98;;;;;;;21.76;43.17;95991.94;4983743;28;20027;-61
2022/12/31 03:35:02;;;;;;;14.18;11.23;;;;;;;21.67;43.41;95981.19;4983842;28;20149;-61
2022/12/31 03:37:28;;;;;;;14.45;11.40;;;;;;;21.47;43.54;95962.16;4981674;28;20094;-60
2022/12/31 03:39:53;;;;;;;15.13;11.80;;;;;;;20.42;43.66;95809.00;4981738;28;20554;-60
2022/12/31 03:42:18;;;;;;;14.00;11.40;;;;;;;21.60;43.50;95997.91;4983619;28;20080;-59
2022/12/31 03:44:44;;;;;;;12.88;10.85;;;;;;;21.64;43.49;95987.56;5015284;28;20327;-60
2022/12/31 03:47:09;;;;;;;13.43;11.10;;;;;;;21.73;43.78;96006.47;4982811;28;20581;-61
2022/12/31 03:49:35;;;;;;;15.80;11.75;;;;;;;20.96;43.42;95896.69;4983982;28;20443;-61
2022/12/31 03:52:01;;;;;;;13.18;11.25;;;;;;;21.56;43.69;95986.50;4984386;28;21027;-61
2022/12/31 03:54:27;;;;;;;13.82;11.63;;;;;;;21.70;43.60;96018.31;4984731;28;20070;-60
2022/12/31 03:56:52;;;;;;;13.27;10.93;;;;;;;21.62;43.57;96006.34;4983733;28;21190;-61
2022/12/31 03:59:18;;;;;;;13.57;11.23;;;;;;;21.29;43.54;95959.66;4983442;28;20045;-60
2022/12/31 04:01:43;;;;;;;14.45;11.52;;;;;;;21.68;43.83;96047.94;4983811;28;20503;-60
2022/12/31 04:04:09;;;;;;;14.40;11.20;;;;;;;21.17;43.60;95946.38;4983921;28;20069;-59
2022/12/31 04:06:34;;;;;;;14.10;11.52;;;;;;;21.52;43.50;95991.38;4981815;28;20460;-61
2022/12/31 04:08:59;;;;;;;13.60;11.55;;;;;;;21.70;43.50;96019.06;4982520;28;20499;-61
2022/12/31 04:11:25;;;;;;;13.45;11.10;;;;;;;21.10;43.54;95928.50;4982903;28;20818;-63
2022/12/31 04:13:50;;;;;;;14.13;11.27;;;;;;;21.31;43.69;95964.59;4984254;28;20042;-60
2022/12/31 04:16:16;;;;;;;15.20;11.93;;;;;;;21.57;43.61;96020.59;4983330;28;20496;-61
2022/12/31 04:18:41;;;;;;;13.48;10.57;;;;;;;21.48;43.65;96005.16;4983299;28;20154;-60
2022/12/31 04:21:07;;;;;;;13.27;11.05;;;;;;;21.61;43.54;96021.13;4983683;28;20427;-62
2022/12/31 04:23:32;;;;;;;13.60;11.20;;;;;;;21.67;43.53;96013.81;4984497;28;20858;-61
2022/12/31 04:25:57;;;;;;;14.20;11.68;;;;;;;21.48;43.66;96001.69;4981437;28;20525;-61
2022/12/31 04:28:23;;;;;;;14.18;11.35;;;;;;;21.44;43.79;96011.97;4984705;28;20041;-61
2022/12/31 04:30:48;;;;;;;14.15;11.18;;;;;;;20.34;43.63;95829.56;4991476;28;20531;-61
2022/12/31 04:33:14;;;;;;;13.57;10.75;;;;;;;21.04;43.78;95952.09;4986720;28;20523;-61
2022/12/31 04:35:39;;;;;;;13.52;11.05;;;;;;;21.59;43.86;96034.47;4987279;28;20518;-61
2022/12/31 04:38:04;;;;;;;13.90;11.40;;;;;;;21.63;43.51;96059.50;4993519;28;20561;-61
2022/12/31 04:40:30;;;;;;;13.75;10.98;;;;;;;21.52;43.37;96023.97;4987092;28;20515;-61
2022/12/31 04:42:55;;;;;;;12.68;10.48;;;;;;;21.67;43.63;96049.16;4987386;28;20108;-61
2022/12/31 04:45:21;;;;;;;13.40;10.88;;;;;;;20.86;43.49;95932.56;4986463;28;20518;-61
2022/12/31 04:47:46;;;;;;;14.60;11.57;;;;;;;21.48;43.68;96023.44;4983652;28;20778;-61
2022/12/31 04:50:12;;;;;;;12.80;11.27;;;;;;;21.45;43.68;96027.06;4987355;28;20513;-60
2022/12/31 04:52:37;;;;;;;13.60;11.00;;;;;;;21.44;43.62;96022.84;4987473;28;20050;-61
2022/12/31 04:55:03;;;;;;;14.13;11.45;;;;;;;21.62;43.81;96044.38;4984672;28;20038;-60
2022/12/31 04:57:28;;;;;;;13.18;11.00;;;;;;;21.63;43.58;96054.06;4986236;28;20107;-61
2022/12/31 04:59:54;;;;;;;13.00;11.02;;;;;;;21.49;43.55;96030.34;4999277;28;20479;-61
2022/12/31 05:02:19;;;;;;;14.57;11.55;;;;;;;21.52;43.36;96041.06;4986634;28;20079;-61
2022/12/31 05:04:44;;;;;;;12.15;10.43;;;;;;;21.55;43.63;96059.13;4986738;28;20572;-60
2022/12/31 05:07:10;;;;;;;12.93;10.80;;;;;;;21.57;43.56;96059.41;4986112;28;20038;-59
2022/12/31 05:09:35;;;;;;;14.15;11.30;;;;;;;21.06;43.81;95993.13;4986225;28;20050;-61
2022/12/31 05:12:01;;;;;;;13.32;10.70;;;;;;;21.55;43.85;96066.50;4986622;28;20105;-60
2022/12/31 05:14:26;;;;;;;12.52;10.65;;;;;;;21.54;43.52;96070.47;4986529;28;20049;-61
2022/12/31 05:16:52;;;;;;;13.32;11.30;;;;;;;20.99;43.54;95985.34;5022780;28;20108;-61
2022/12/31 05:19:17;;;;;;;12.98;10.82;;;;;;;21.58;43.52;96081.88;4992512;28;20042;-60
2022/12/31 05:22:27;;;;;;;13.10;11.20;;;;;;;21.47;43.76;96076.28;5017849;28;20042;-61
2022/12/31 05:24:28;;;;;;;13.43;11.45;;;;;;;21.53;43.79;96094.16;4985003;28;20128;-61
2022/12/31 05:26:54;;;;;;;13.13;10.93;;;;;;;21.42;43.84;96079.66;4983508;28;20499;-61
2022/12/31 05:29:19;;;;;;;14.02;11.13;;;;;;;21.45;43.59;96078.69;4986015;28;20030;-61
2022/12/31 05:31:44;;;;;;;13.35;10.35;;;;;;;21.52;43.58;96105.50;4985930;28;20043;-61
2022/12/31 05:34:10;;;;;;;13.73;11.05;;;;;;;21.56;43.48;96095.19;4986376;28;20047;-61
2022/12/31 05:36:35;;;;;;;12.73;10.75;;;;;;;21.48;43.55;96088.66;5016763;28;20252;-59
2022/12/31 05:39:01;;;;;;;12.90;10.75;;;;;;;21.31;43.62;96063.16;4968742;28;20538;-61
2022/12/31 05:41:26;;;;;;;12.60;10.80;;;;;;;21.27;43.73;96068.03;4985550;28;20443;-61
2022/12/31 05:43:51;;;;;;;13.75;11.05;;;;;;;21.33;43.67;96071.59;4985605;28;20038;-60
2022/12/31 05:46:17;;;;;;;13.93;11.10;;;;;;;21.48;43.77;96096.81;4985102;28;20057;-60
2022/12/31 05:48:42;;;;;;;12.50;10.52;;;;;;;21.49;43.71;96090.13;4983836;28;20058;-61
2022/12/31 05:51:08;;;;;;;12.98;11.40;;;;;;;21.55;43.64;96099.13;4986593;28;20043;-63
2022/12/31 05:53:34;;;;;;;12.63;10.88;;;;;;;21.31;43.59;96071.28;4985551;28;20481;-60
2022/12/31 05:55:59;;;;;;;12.10;10.13;;;;;;;21.40;43.66;96087.50;4986420;28;20434;-60
2022/12/31 05:58:24;;;;;;;13.82;11.43;;;;;;;21.29;43.79;96060.16;4984402;28;20046;-60
2022/12/31 06:00:50;;;;;;;13.07;10.65;;;;;;;21.50;43.33;96113.38;4984165;28;20046;-60
2022/12/31 06:03:16;;;;;;;13.20;10.95;;;;;;;21.42;43.58;96112.25;4985473;28;20058;-63
2022/12/31 06:05:42;;;;;;;13.05;11.13;;;;;;;21.40;43.76;96092.94;4984989;28;20046;-60
2022/12/31 06:08:07;;;;;;;13.45;11.30;;;;;;;21.48;43.59;96104.97;4984623;28;20418;-60
2022/12/31 06:10:33;;;;;;;13.45;11.25;;;;;;;21.52;43.69;96113.66;4985372;28;20076;-61
2022/12/31 06:12:58;;;;;;;13.38;11.02;;;;;;;21.05;43.59;96051.38;4989683;28;20061;-60
2022/12/31 06:15:24;;;;;;;13.90;11.13;;;;;;;21.39;43.59;96096.13;4969936;28;20053;-59
2022/12/31 06:17:49;;;;;;;13.65;10.68;;;;;;;20.88;43.75;96024.41;4995991;28;20414;-60
2022/12/31 06:20:15;;;;;;;13.00;10.77;;;;;;;20.86;43.77;96015.97;4986477;28;20034;-61
2022/12/31 06:22:40;;;;;;;13.15;10.75;;;;;;;21.32;43.17;96026.63;4983638;28;20073;-60
2022/12/31 06:25:06;;;;;;;11.68;10.43;;;;;;;22.24;42.49;96127.88;4982391;28;20050;-60
2022/12/31 06:27:31;;;;;;;11.30;10.10;;;;;;;22.36;42.35;96128.75;4984035;28;20035;-61
2022/12/31 06:29:57;;;;;;;13.77;10.60;;;;;;;21.89;41.77;96049.47;5014920;28;20046;-61
2022/12/31 06:32:22;;;;;;;12.88;10.57;;;;;;;22.47;41.84;96124.22;4985895;28;20037;-58
2022/12/31 06:34:48;;;;;;;11.57;9.68;;;;;;;22.58;41.66;96140.69;4985627;28;20046;-61
2022/12/31 06:37:13;;;;;;;13.23;10.88;;;;;;;22.50;41.54;96112.38;4981384;28;20042;-61
2022/12/31 06:39:39;;;;;;;14.43;11.02;;;;;;;22.75;41.18;96144.34;4973574;28;20318;-61
2022/12/31 06:42:04;;;;;;;12.70;10.65;;;;;;;22.76;41.21;96140.41;4984512;28;20066;-60
2022/12/31 06:44:30;;;;;;;12.30;10.63;;;;;;;22.81;41.05;96132.31;4983837;28;20053;-60
2022/12/31 06:46:55;;;;;;;13.55;11.20;;;;;;;22.88;41.40;96148.97;4982253;28;20674;-61
2022/12/31 06:49:21;;;;;;;12.25;10.55;;;;;;;22.44;41.14;96066.03;4984797;28;20511;-62
2022/12/31 06:51:46;;;;;;;11.82;10.23;;;;;;;23.07;40.95;96144.75;4982286;28;20487;-62
2022/12/31 06:54:12;;;;;;;12.27;10.05;;;;;;;23.09;41.46;96153.19;4983508;28;20057;-61
2022/12/31 06:56:38;;;;;;;12.45;9.65;;;;;;;23.17;41.51;96159.72;4982141;28;20038;-58
2022/12/31 06:59:04;;;;;;;11.90;10.55;;;;;;;23.24;40.88;96162.00;4949211;28;20038;-60
2022/12/31 07:01:32;;;;;;;12.88;10.40;;;;;;;23.37;41.03;96173.28;4981872;28;20058;-61
2022/12/31 07:04:21;;;;;;;12.05;10.07;;;;;;;23.44;40.72;96172.88;4983951;28;20046;-61
2022/12/31 07:07:19;;;;;;;11.52;9.88;;;;;;;23.54;40.67;96171.47;5014968;28;20828;-60
2022/12/31 07:10:10;;;;;;;11.50;10.20;;;;;;;23.21;40.73;96100.28;4978867;28;20118;-60
2022/12/31 07:12:54;;;;;;;12.57;10.15;;;;;;;23.70;40.11;96173.63;4982324;28;20561;-60
2022/12/31 07:15:43;;;;;;;12.40;10.18;;;;;;;23.66;40.28;96156.72;4981863;28;20046;-58
2022/12/31 07:18:29;;;;;;;11.45;9.75;;;;;;;23.86;40.12;96166.31;5009583;28;20046;-60
2022/12/31 07:20:55;;;;;;;12.02;10.07;;;;;;;23.86;39.81;96152.69;4981620;28;20062;-59
2022/12/31 07:23:21;;;;;;;11.40;9.85;;;;;;;23.50;39.49;96072.78;4983489;28;20060;-60
2022/12/31 07:25:53;;;;;;;11.57;10.15;;;;;;;23.99;39.22;96149.53;4980670;28;20077;-60
2022/12/31 07:28:37;;;;;;;12.38;10.48;;;;;;;24.25;39.61;96181.00;5013203;28;20042;-60
2022/12/31 07:31:21;;;;;;;11.00;9.73;;;;;;;24.10;39.44;96180.38;4983597;28;20802;-59
2022/12/31 07:34:01;;;;;;;12.70;10.40;;;;;;;24.09;39.13;96151.59;4982918;28;20046;-60
2022/12/31 07:36:51;;;;;;;12.85;10.20;;;;;;;24.29;39.35;96186.97;4997022;28;20046;-59
2022/12/31 07:39:25;;;;;;;11.75;9.90;;;;;;;23.04;39.13;96006.03;5011253;28;20396;-60
2022/12/31 07:42:26;;;;;;;12.48;9.88;;;;;;;24.31;39.38;96189.97;4981957;28;20102;-60
2022/12/31 07:45:02;;;;;;;10.55;9.45;;;;;;;24.26;38.54;96171.56;4981334;28;20046;-59
2022/12/31 07:47:28;;;;;;;11.07;9.52;;;;;;;23.94;38.87;96112.78;4983272;28;20030;-60
2022/12/31 07:49:54;;;;;;;13.48;10.02;;;;;;;24.58;38.47;96200.34;4985305;28;20046;-61
2022/12/31 07:52:20;;;;;;;12.18;9.70;;;;;;;24.61;38.81;96196.63;4984942;28;20046;-60
2022/12/31 07:54:45;;;;;;;11.32;9.40;;;;;;;24.80;38.38;96192.22;4988863;28;20109;-59
2022/12/31 07:57:11;;;;;;;10.95;9.80;;;;;;;24.81;38.44;96204.66;4983869;28;20132;-60
2022/12/31 07:59:46;;;;;;;13.40;10.27;;;;;;;24.76;38.21;96199.94;4984077;28;20149;-60
2022/12/31 08:02:33;;;;;;;11.90;9.98;;;;;;;24.73;38.31;96203.66;4973262;28;20042;-59
2022/12/31 08:04:58;;;;;;;10.90;9.70;;;;;;;24.79;38.25;96207.16;4983878;28;20426;-60
2022/12/31 08:07:32;;;;;;;12.05;10.25;;;;;;;24.78;38.30;96205.66;4983701;28;20054;-60
2022/12/31 08:09:58;;;;;;;10.43;9.30;;;;;;;24.77;38.31;96204.13;4987122;28;20047;-61
2022/12/31 08:12:25;;;;;;;11.45;9.65;;;;;;;24.71;38.54;96203.38;4982248;28;20572;-60
2022/12/31 08:14:50;;;;;;;10.77;9.63;;;;;;;24.76;38.76;96194.47;4982916;28;20525;-61
2022/12/31 08:17:17;;;;;;;12.32;9.45;;;;;;;24.87;38.40;96215.13;4985772;28;20038;-61
2022/12/31 08:19:44;;;;;;;11.32;9.20;;;;;;;24.92;37.92;96194.53;4986493;28;20145;-60
2022/12/31 08:22:25;;;;;;;12.32;9.98;;;;;;;24.95;38.39;96207.97;4987153;28;20423;-60
2022/12/31 08:25:15;;;;;;;11.65;10.10;;;;;;;25.06;38.09;96199.81;4982265;28;20050;-60
2022/12/31 08:27:40;;;;;;;;;;;;;;;25.25;37.43;96206.38;5016577;28;20039;-60
2022/12/31 08:30:08;;;;;;;10.60;9.50;;;;;;;25.01;38.21;96200.56;4987158;28;19933;-60
2022/12/31 08:32:45;;;;;;;11.52;9.95;;;;;;;24.94;37.83;96213.91;4969486;28;20438;-60
2022/12/31 08:35:32;;;;;;;11.82;10.25;;;;;;;24.89;38.13;96201.72;5002335;28;20046;-59
2022/12/31 08:38:18;;;;;;;11.80;9.82;;;;;;;24.95;37.76;96205.22;4985527;28;20050;-59
2022/12/31 08:40:55;;;;;;;12.07;9.77;;;;;;;25.00;38.10;96218.19;4986522;28;20038;-61
2022/12/31 08:43:41;;;;;;;10.82;9.60;;;;;;;25.00;37.79;96206.53;4992348;28;20044;-59
2022/12/31 08:46:14;;;;;;;14.00;9.93;;;;;;;24.35;37.82;96103.16;4985963;28;20054;-60
2022/12/31 08:48:41;;;;;;;11.02;9.73;;;;;;;24.33;37.71;96083.78;4968355;28;20451;-60
2022/12/31 08:51:32;;;;;;;10.63;9.52;;;;;;;25.15;37.94;96202.34;4998324;28;20046;-59
2022/12/31 08:53:58;;;;;;;13.75;9.10;;;;;;;25.42;37.28;96198.94;4987932;28;20045;-62
2022/12/31 08:56:45;;;;;;;12.07;9.60;;;;;;;25.41;37.60;96197.44;4986827;28;20507;-60
2022/12/31 08:59:10;;;;;;;10.55;9.45;;;;;;;25.31;37.89;96198.19;4964594;28;20078;-61
2022/12/31 09:02:01;;;;;;;10.85;8.85;;;;;;;25.28;37.72;96199.91;4981576;28;20085;-61
2022/12/31 09:05:08;;;;;;;10.63;8.70;;;;;;;25.38;37.54;96198.44;4977420;28;20047;-59
2022/12/31 09:07:38;;;;;;;11.30;9.38;;;;;;;25.36;37.68;96189.97;4946906;28;20069;-59
2022/12/31 09:10:39;;;;;;;11.43;9.15;;;;;;;23.75;37.50;95938.34;5010266;28;20069;-60
2022/12/31 09:13:34;;;;;;;10.35;9.02;;;;;;;25.38;37.47;96182.78;5015065;28;20038;-60
2022/12/31 09:16:06;;;;;;;11.68;9.25;;;;;;;25.47;37.68;96190.00;4985474;28;20109;-60
2022/12/31 09:18:31;;;;;;;10.20;8.82;;;;;;;25.44;37.57;96190.97;4982302;28;20047;-58
2022/12/31 09:20:57;;;;;;;11.85;9.38;;;;;;;25.59;37.42;96186.03;4968434;28;20327;-60
2022/12/31 09:23:22;;;;;;;10.40;8.90;;;;;;;25.77;37.24;96191.06;4987672;28;20031;-60
2022/12/31 09:26:08;;;;;;;9.80;8.80;;;;;;;25.47;37.83;96184.53;4986133;28;20534;-59
2022/12/31 09:29:08;;;;;;;10.63;8.63;;;;;;;25.07;37.53;96116.59;4986525;28;20458;-60
2022/12/31 09:31:56;;;;;;;10.45;8.85;;;;;;;25.42;37.74;96166.13;4973764;28;20129;-59
2022/12/31 09:34:48;;;;;;;10.38;8.48;;;;;;;25.57;37.47;96161.16;4983152;28;20103;-60
2022/12/31 09:37:42;;;;;;;11.15;9.00;;;;;;;25.29;38.21;96157.66;4985282;28;20046;-60
2022/12/31 09:40:20;;;;;;;10.30;8.57;;;;;;;25.51;37.93;96146.75;4990578;28;20515;-60
2022/12/31 09:43:08;;;;;;;10.57;8.75;;;;;;;25.62;37.73;96149.47;4984278;28;20064;-60
2022/12/31 09:45:34;;;;;;;10.20;8.68;;;;;;;25.77;37.60;96147.28;4967335;28;20085;-61
2022/12/31 09:48:27;;;;;;;10.35;8.50;;;;;;;25.63;37.62;96159.91;4984485;28;20050;-60
2022/12/31 09:51:11;;;;;;;12.68;9.10;;;;;;;25.05;38.11;96060.91;4971561;28;20114;-60
2022/12/31 09:53:57;;;;;;;13.05;8.73;;;;;;;25.20;37.91;96089.53;4985183;28;20066;-60
2022/12/31 09:56:34;;;;;;;14.00;9.20;;;;;;;25.29;38.37;96113.91;4985759;28;20769;-59
2022/12/31 09:59:12;;;;;;;11.98;8.68;;;;;;;25.38;38.52;96121.84;4968447;28;20092;-60
2022/12/31 10:01:52;;;;;;;27.55;18.35;;;;;;;24.82;34.23;96131.13;4988399;28;20541;-61
2022/12/31 10:04:26;;;;;;;24.88;19.52;;;;;;;24.18;33.93;96121.38;5014114;28;20065;-60
2022/12/31 10:07:07;;;;;;;28.63;21.25;;;;;;;23.32;33.31;96132.34;4985197;28;20042;-60
2022/12/31 10:09:32;;;;;;;26.90;22.58;;;;;;;22.69;33.49;96129.91;4985434;28;20035;-60
2022/12/31 10:12:33;;;;;;;32.50;24.83;;;;;;;22.56;33.75;96126.81;4985348;28;20042;-59
2022/12/31 10:15:23;;;;;;;33.38;26.45;;;;;;;22.88;32.79;96140.81;4981690;28;20042;-60
2022/12/31 10:18:02;;;;;;;36.25;28.08;;;;;;;22.34;32.86;96109.44;4983022;28;20034;-59
2022/12/31 10:20:38;;;;;;;36.22;28.95;;;;;;;22.14;33.25;96096.53;5014034;28;20030;-60
2022/12/31 10:23:41;;;;;;;36.47;29.17;;;;;;;22.22;32.99;96122.16;4989542;28;20073;-59
2022/12/31 10:26:21;;;;;;;34.97;29.13;;;;;;;21.89;33.12;96112.75;4984803;28;20069;-60
2022/12/31 10:29:13;;;;;;;39.05;30.33;;;;;;;21.87;33.59;96106.28;4983883;28;20796;-59
2022/12/31 10:31:57;;;;;;;35.90;29.40;;;;;;;21.81;33.21;96105.44;4983041;28;20062;-59
2022/12/31 10:34:47;;;;;;;38.55;30.10;;;;;;;21.65;33.26;96103.25;4998422;28;20043;-60
2022/12/31 10:37:15;;;;;;;41.35;29.20;;;;;;;21.46;33.45;96091.06;4983173;28;20030;-60
2022/12/31 10:40:04;;;;;;;35.22;28.17;;;;;;;21.58;33.31;96126.13;4984495;28;20074;-59
2022/12/31 10:42:47;;;;;;;37.20;28.67;;;;;;;21.69;33.20;96092.94;4984930;28;20050;-59
2022/12/31 10:45:38;;;;;;;34.90;27.63;;;;;;;21.60;33.36;96099.22;4985015;28;20049;-60
2022/12/31 10:48:24;;;;;;;36.03;27.85;;;;;;;20.67;33.19;95984.78;4978689;28;20060;-60
2022/12/31 10:50:56;;;;;;;35.65;25.73;;;;;;;20.50;33.77;95978.31;4986001;28;20014;-60
2022/12/31 10:53:36;;;;;;;32.28;26.17;;;;;;;21.09;33.87;96079.09;4989190;28;20046;-60
2022/12/31 10:56:04;;;;;;;32.53;25.42;;;;;;;21.37;33.73;96083.00;4981588;28;20057;-60
2022/12/31 10:58:51;;;;;;;30.98;23.95;;;;;;;21.37;33.54;96088.44;4985326;28;20507;-59
2022/12/31 11:01:31;;;;;;;31.02;23.40;;;;;;;21.02;34.12;96078.72;4986020;28;20057;-60
2022/12/31 11:04:27;;;;;;;31.15;22.67;;;;;;;21.06;34.05;96080.03;4984773;28;20073;-59
2022/12/31 11:06:56;;;;;;;31.77;22.13;;;;;;;21.03;34.11;96091.81;4977628;28;20057;-61
2022/12/31 11:09:44;;;;;;;28.45;21.73;;;;;;;21.26;33.77;96093.69;4983495;28;20131;-59
2022/12/31 11:12:49;;;;;;;28.73;20.83;;;;;;;21.24;33.65;96084.50;4973570;28;20051;-59
2022/12/31 11:15:33;;;;;;;28.25;20.73;;;;;;;21.29;33.70;96092.03;5011285;28;20057;-59
2022/12/31 11:18:10;;;;;;;24.58;19.25;;;;;;;21.36;33.42;96086.97;4981025;28;20046;-61
2022/12/31 11:21:05;;;;;;;25.27;20.02;;;;;;;20.61;34.00;95992.06;5016495;28;20034;-59
2022/12/31 11:23:52;;;;;;;24.27;19.02;;;;;;;21.35;33.69;96071.88;4981381;28;20429;-59
2022/12/31 11:26:32;;;;;;;26.23;19.88;;;;;;;21.58;33.19;96060.13;4983141;28;20065;-60
2022/12/31 11:29:13;;;;;;;26.50;20.60;;;;;;;21.52;33.36;96057.34;4983505;28;20587;-60
2022/12/31 11:31:51;;;;;;;26.88;19.52;;;;;;;21.35;33.52;96069.16;4988964;28;20108;-60
2022/12/31 11:34:39;;;;;;;25.55;19.75;;;;;;;21.51;33.05;96049.66;4985873;28;20133;-59
2022/12/31 11:37:16;;;;;;;25.75;20.42;;;;;;;21.65;33.13;96065.19;4998173;28;20085;-60
2022/12/31 11:39:50;;;;;;;24.38;19.73;;;;;;;21.70;33.06;96064.50;4988451;28;20442;-59
2022/12/31 11:42:43;;;;;;;27.63;21.15;;;;;;;21.00;33.06;95984.16;4988259;28;20050;-59
2022/12/31 11:45:13;;;;;;;30.00;20.35;;;;;;;21.66;33.04;96055.81;4988046;28;20129;-60
2022/12/31 11:47:54;;;;;;;;;;;;;;;21.71;32.96;96052.44;4988071;28;20022;-60
2022/12/31 11:50:48;;;;;;;26.88;19.80;;;;;;;20.71;33.46;95933.81;4987581;28;19999;-60
2022/12/31 11:53:17;;;;;;;28.08;20.70;;;;;;;20.54;33.74;95940.91;5022177;28;20062;-60
2022/12/31 11:56:10;;;;;;;28.10;21.20;;;;;;;21.30;33.80;96042.66;4987812;28;20596;-59
2022/12/31 11:58:35;;;;;;;28.70;21.70;;;;;;;20.87;33.45;95965.91;4986314;28;20107;-60